sensor_id;sensor_type;location;lat;lon;timestamp;P1;durP1;ratioP1;P2;durP2;ratioP2
16975;SDS011;8604;48.148;-1.786;2023-07-13T00:01:12;5.27;;;2.40;;
16975;SDS011;8604;48.148;-1.786;2023-07-13T00:03:41;6.27;;;2.40;;
16975;SDS011;8604;48.148;-1.786;2023-07-13T00:06:10;6.13;;;2.70;;
16975;SDS011;8604;48.148;-1.786;2023-07-13T00:08:39;7.63;;;2.53;;
16975;SDS011;8604;48.148;-1.786;2023-07-13T00:11:07;7.30;;;2.60;;
16975;SDS011;8604;48.148;-1.786;2023-07-13T00:13:37;4.00;;;2.30;;
16975;SDS011;8604;48.148;-1.786;2023-07-13T00:16:07;5.60;;;2.20;;
16975;SDS011;8604;48.148;-1.786;2023-07-13T00:18:37;8.67;;;2.80;;
16975;SDS011;8604;48.148;-1.786;2023-07-13T00:21:05;7.27;;;2.67;;
16975;SDS011;8604;48.148;-1.786;2023-07-13T00:23:34;7.07;;;2.57;;
16975;SDS011;8604;48.148;-1.786;2023-07-13T00:26:05;7.20;;;2.70;;
16975;SDS011;8604;48.148;-1.786;2023-07-13T00:28:37;4.93;;;2.43;;
16975;SDS011;8604;48.148;-1.786;2023-07-13T00:31:08;6.37;;;2.70;;
16975;SDS011;8604;48.148;-1.786;2023-07-13T00:33:36;5.87;;;2.57;;
16975;SDS011;8604;48.148;-1.786;2023-07-13T00:36:05;5.90;;;2.60;;
16975;SDS011;8604;48.148;-1.786;2023-07-13T00:38:34;8.50;;;2.90;;
16975;SDS011;8604;48.148;-1.786;2023-07-13T00:41:02;4.77;;;2.50;;
16975;SDS011;8604;48.148;-1.786;2023-07-13T00:43:31;5.33;;;2.87;;
16975;SDS011;8604;48.148;-1.786;2023-07-13T00:46:16;6.57;;;2.87;;
16975;SDS011;8604;48.148;-1.786;2023-07-13T00:48:48;5.97;;;2.60;;
16975;SDS011;8604;48.148;-1.786;2023-07-13T00:51:18;5.93;;;2.77;;
16975;SDS011;8604;48.148;-1.786;2023-07-13T00:53:49;6.83;;;2.70;;
16975;SDS011;8604;48.148;-1.786;2023-07-13T00:56:21;5.93;;;2.40;;
16975;SDS011;8604;48.148;-1.786;2023-07-13T00:58:50;6.23;;;2.50;;
16975;SDS011;8604;48.148;-1.786;2023-07-13T01:01:19;6.47;;;2.80;;
16975;SDS011;8604;48.148;-1.786;2023-07-13T01:03:48;6.73;;;2.73;;
16975;SDS011;8604;48.148;-1.786;2023-07-13T01:06:16;5.50;;;2.57;;
16975;SDS011;8604;48.148;-1.786;2023-07-13T01:08:45;6.33;;;2.30;;
16975;SDS011;8604;48.148;-1.786;2023-07-13T01:11:17;7.27;;;2.50;;
16975;SDS011;8604;48.148;-1.786;2023-07-13T01:13:47;5.53;;;2.60;;
16975;SDS011;8604;48.148;-1.786;2023-07-13T01:16:19;5.80;;;2.70;;
16975;SDS011;8604;48.148;-1.786;2023-07-13T01:18:52;5.97;;;2.40;;
16975;SDS011;8604;48.148;-1.786;2023-07-13T01:21:24;5.13;;;2.43;;
16975;SDS011;8604;48.148;-1.786;2023-07-13T01:23:53;6.10;;;2.37;;
16975;SDS011;8604;48.148;-1.786;2023-07-13T01:26:21;5.97;;;2.63;;
16975;SDS011;8604;48.148;-1.786;2023-07-13T01:28:49;6.50;;;2.50;;
16975;SDS011;8604;48.148;-1.786;2023-07-13T01:31:18;6.03;;;2.20;;
16975;SDS011;8604;48.148;-1.786;2023-07-13T01:33:46;6.30;;;2.60;;
16975;SDS011;8604;48.148;-1.786;2023-07-13T01:36:15;6.40;;;2.37;;
16975;SDS011;8604;48.148;-1.786;2023-07-13T01:38:44;5.80;;;2.40;;
16975;SDS011;8604;48.148;-1.786;2023-07-13T01:41:13;6.60;;;2.57;;
16975;SDS011;8604;48.148;-1.786;2023-07-13T01:43:41;5.70;;;2.50;;
16975;SDS011;8604;48.148;-1.786;2023-07-13T01:46:09;6.30;;;2.60;;
16975;SDS011;8604;48.148;-1.786;2023-07-13T01:48:49;6.83;;;2.50;;
16975;SDS011;8604;48.148;-1.786;2023-07-13T01:51:18;6.60;;;2.40;;
16975;SDS011;8604;48.148;-1.786;2023-07-13T01:53:48;7.50;;;2.60;;
16975;SDS011;8604;48.148;-1.786;2023-07-13T01:56:17;5.27;;;2.47;;
16975;SDS011;8604;48.148;-1.786;2023-07-13T01:58:46;5.80;;;2.30;;
16975;SDS011;8604;48.148;-1.786;2023-07-13T02:01:15;5.77;;;2.37;;
16975;SDS011;8604;48.148;-1.786;2023-07-13T02:03:44;5.93;;;2.40;;
16975;SDS011;8604;48.148;-1.786;2023-07-13T02:06:13;6.30;;;2.30;;
16975;SDS011;8604;48.148;-1.786;2023-07-13T02:08:41;8.90;;;2.53;;
16975;SDS011;8604;48.148;-1.786;2023-07-13T02:11:11;6.40;;;2.70;;
16975;SDS011;8604;48.148;-1.786;2023-07-13T02:13:40;9.27;;;2.60;;
16975;SDS011;8604;48.148;-1.786;2023-07-13T02:16:08;6.70;;;2.70;;
16975;SDS011;8604;48.148;-1.786;2023-07-13T02:18:37;5.67;;;2.50;;
16975;SDS011;8604;48.148;-1.786;2023-07-13T02:21:06;8.17;;;2.27;;
16975;SDS011;8604;48.148;-1.786;2023-07-13T02:23:34;8.23;;;2.73;;
16975;SDS011;8604;48.148;-1.786;2023-07-13T02:26:03;7.67;;;2.80;;
16975;SDS011;8604;48.148;-1.786;2023-07-13T02:28:33;7.33;;;2.50;;
16975;SDS011;8604;48.148;-1.786;2023-07-13T02:31:05;6.37;;;2.10;;
16975;SDS011;8604;48.148;-1.786;2023-07-13T02:33:34;5.33;;;2.47;;
16975;SDS011;8604;48.148;-1.786;2023-07-13T02:36:03;5.93;;;2.30;;
16975;SDS011;8604;48.148;-1.786;2023-07-13T02:38:32;5.07;;;2.20;;
16975;SDS011;8604;48.148;-1.786;2023-07-13T02:41:01;7.43;;;2.50;;
16975;SDS011;8604;48.148;-1.786;2023-07-13T02:43:30;6.43;;;2.47;;
16975;SDS011;8604;48.148;-1.786;2023-07-13T02:46:00;7.67;;;2.60;;
16975;SDS011;8604;48.148;-1.786;2023-07-13T02:48:35;5.60;;;2.60;;
16975;SDS011;8604;48.148;-1.786;2023-07-13T02:51:04;6.63;;;2.50;;
16975;SDS011;8604;48.148;-1.786;2023-07-13T02:53:34;8.33;;;2.77;;
16975;SDS011;8604;48.148;-1.786;2023-07-13T02:56:03;6.67;;;2.50;;
16975;SDS011;8604;48.148;-1.786;2023-07-13T02:58:32;6.80;;;2.70;;
16975;SDS011;8604;48.148;-1.786;2023-07-13T03:01:07;7.80;;;2.70;;
16975;SDS011;8604;48.148;-1.786;2023-07-13T03:03:37;6.03;;;2.30;;
16975;SDS011;8604;48.148;-1.786;2023-07-13T03:06:06;6.60;;;2.70;;
16975;SDS011;8604;48.148;-1.786;2023-07-13T03:08:44;7.17;;;2.60;;
16975;SDS011;8604;48.148;-1.786;2023-07-13T03:11:13;6.50;;;2.50;;
16975;SDS011;8604;48.148;-1.786;2023-07-13T03:13:45;5.67;;;2.60;;
16975;SDS011;8604;48.148;-1.786;2023-07-13T03:16:16;6.70;;;2.30;;
16975;SDS011;8604;48.148;-1.786;2023-07-13T03:18:47;8.90;;;2.70;;
16975;SDS011;8604;48.148;-1.786;2023-07-13T03:21:16;8.03;;;2.90;;
16975;SDS011;8604;48.148;-1.786;2023-07-13T03:23:45;6.50;;;2.50;;
16975;SDS011;8604;48.148;-1.786;2023-07-13T03:26:16;6.67;;;2.77;;
16975;SDS011;8604;48.148;-1.786;2023-07-13T03:28:47;5.83;;;2.40;;
16975;SDS011;8604;48.148;-1.786;2023-07-13T03:31:21;7.27;;;2.60;;
16975;SDS011;8604;48.148;-1.786;2023-07-13T03:33:52;6.57;;;2.70;;
16975;SDS011;8604;48.148;-1.786;2023-07-13T03:36:21;7.87;;;2.53;;
16975;SDS011;8604;48.148;-1.786;2023-07-13T03:38:54;5.90;;;2.53;;
16975;SDS011;8604;48.148;-1.786;2023-07-13T03:41:28;6.87;;;2.63;;
16975;SDS011;8604;48.148;-1.786;2023-07-13T03:43:58;7.17;;;2.60;;
16975;SDS011;8604;48.148;-1.786;2023-07-13T03:46:28;6.40;;;2.53;;
16975;SDS011;8604;48.148;-1.786;2023-07-13T03:48:57;6.03;;;2.50;;
16975;SDS011;8604;48.148;-1.786;2023-07-13T03:51:25;7.10;;;2.60;;
16975;SDS011;8604;48.148;-1.786;2023-07-13T03:53:54;10.00;;;2.63;;
16975;SDS011;8604;48.148;-1.786;2023-07-13T03:56:22;7.40;;;2.60;;
16975;SDS011;8604;48.148;-1.786;2023-07-13T03:58:51;5.00;;;2.60;;
16975;SDS011;8604;48.148;-1.786;2023-07-13T04:01:21;8.10;;;3.00;;
16975;SDS011;8604;48.148;-1.786;2023-07-13T04:03:52;6.70;;;2.57;;
16975;SDS011;8604;48.148;-1.786;2023-07-13T04:06:23;6.77;;;2.50;;
16975;SDS011;8604;48.148;-1.786;2023-07-13T04:08:54;7.23;;;2.70;;
16975;SDS011;8604;48.148;-1.786;2023-07-13T04:11:25;8.00;;;2.80;;
16975;SDS011;8604;48.148;-1.786;2023-07-13T04:13:55;8.20;;;2.73;;
16975;SDS011;8604;48.148;-1.786;2023-07-13T04:16:24;7.37;;;2.63;;
16975;SDS011;8604;48.148;-1.786;2023-07-13T04:18:54;7.73;;;2.80;;
16975;SDS011;8604;48.148;-1.786;2023-07-13T04:21:27;5.50;;;2.60;;
16975;SDS011;8604;48.148;-1.786;2023-07-13T04:23:57;8.33;;;2.63;;
16975;SDS011;8604;48.148;-1.786;2023-07-13T04:26:25;6.20;;;2.53;;
16975;SDS011;8604;48.148;-1.786;2023-07-13T04:28:54;6.83;;;2.80;;
16975;SDS011;8604;48.148;-1.786;2023-07-13T04:31:23;6.90;;;2.67;;
16975;SDS011;8604;48.148;-1.786;2023-07-13T04:33:52;6.77;;;2.60;;
16975;SDS011;8604;48.148;-1.786;2023-07-13T04:36:21;7.07;;;2.60;;
16975;SDS011;8604;48.148;-1.786;2023-07-13T04:38:52;7.57;;;2.97;;
16975;SDS011;8604;48.148;-1.786;2023-07-13T04:41:21;7.53;;;3.03;;
16975;SDS011;8604;48.148;-1.786;2023-07-13T04:43:49;6.17;;;2.50;;
16975;SDS011;8604;48.148;-1.786;2023-07-13T04:46:20;7.37;;;3.10;;
16975;SDS011;8604;48.148;-1.786;2023-07-13T04:48:49;7.20;;;2.90;;
16975;SDS011;8604;48.148;-1.786;2023-07-13T04:51:21;5.90;;;2.80;;
16975;SDS011;8604;48.148;-1.786;2023-07-13T04:53:49;7.07;;;2.70;;
16975;SDS011;8604;48.148;-1.786;2023-07-13T04:56:25;8.87;;;3.10;;
16975;SDS011;8604;48.148;-1.786;2023-07-13T04:58:53;6.93;;;2.87;;
16975;SDS011;8604;48.148;-1.786;2023-07-13T05:01:22;9.20;;;2.90;;
16975;SDS011;8604;48.148;-1.786;2023-07-13T05:03:51;7.37;;;2.87;;
16975;SDS011;8604;48.148;-1.786;2023-07-13T05:06:23;7.57;;;2.70;;
16975;SDS011;8604;48.148;-1.786;2023-07-13T05:08:51;7.17;;;3.00;;
16975;SDS011;8604;48.148;-1.786;2023-07-13T05:11:20;6.63;;;2.83;;
16975;SDS011;8604;48.148;-1.786;2023-07-13T05:13:48;9.77;;;3.10;;
16975;SDS011;8604;48.148;-1.786;2023-07-13T05:16:16;7.03;;;2.80;;
16975;SDS011;8604;48.148;-1.786;2023-07-13T05:18:45;7.50;;;3.10;;
16975;SDS011;8604;48.148;-1.786;2023-07-13T05:21:13;6.80;;;2.83;;
16975;SDS011;8604;48.148;-1.786;2023-07-13T05:23:43;7.37;;;2.87;;
16975;SDS011;8604;48.148;-1.786;2023-07-13T05:26:11;7.73;;;2.70;;
16975;SDS011;8604;48.148;-1.786;2023-07-13T05:28:40;7.77;;;3.20;;
16975;SDS011;8604;48.148;-1.786;2023-07-13T05:31:08;9.07;;;3.10;;
16975;SDS011;8604;48.148;-1.786;2023-07-13T05:33:38;7.60;;;3.10;;
16975;SDS011;8604;48.148;-1.786;2023-07-13T05:36:06;7.00;;;2.73;;
16975;SDS011;8604;48.148;-1.786;2023-07-13T05:38:35;5.50;;;2.67;;
16975;SDS011;8604;48.148;-1.786;2023-07-13T05:41:05;8.53;;;2.83;;
16975;SDS011;8604;48.148;-1.786;2023-07-13T05:43:34;8.00;;;2.93;;
16975;SDS011;8604;48.148;-1.786;2023-07-13T05:51:01;11.67;;;3.30;;
16975;SDS011;8604;48.148;-1.786;2023-07-13T05:54:24;7.87;;;3.00;;
16975;SDS011;8604;48.148;-1.786;2023-07-13T05:57:31;6.47;;;2.60;;
16975;SDS011;8604;48.148;-1.786;2023-07-13T06:00:34;8.67;;;3.17;;
16975;SDS011;8604;48.148;-1.786;2023-07-13T06:03:29;9.53;;;3.30;;
16975;SDS011;8604;48.148;-1.786;2023-07-13T06:06:15;9.80;;;3.40;;
16975;SDS011;8604;48.148;-1.786;2023-07-13T06:09:20;9.40;;;3.57;;
16975;SDS011;8604;48.148;-1.786;2023-07-13T06:12:03;7.50;;;2.77;;
16975;SDS011;8604;48.148;-1.786;2023-07-13T06:14:54;12.13;;;3.20;;
16975;SDS011;8604;48.148;-1.786;2023-07-13T06:17:44;10.20;;;3.20;;
16975;SDS011;8604;48.148;-1.786;2023-07-13T06:20:51;7.90;;;3.00;;
16975;SDS011;8604;48.148;-1.786;2023-07-13T06:24:04;7.87;;;3.10;;
16975;SDS011;8604;48.148;-1.786;2023-07-13T06:27:06;8.87;;;2.97;;
16975;SDS011;8604;48.148;-1.786;2023-07-13T06:30:05;8.53;;;2.73;;
16975;SDS011;8604;48.148;-1.786;2023-07-13T06:32:55;5.43;;;2.67;;
16975;SDS011;8604;48.148;-1.786;2023-07-13T06:36:27;7.80;;;2.63;;
16975;SDS011;8604;48.148;-1.786;2023-07-13T06:39:36;6.77;;;2.63;;
16975;SDS011;8604;48.148;-1.786;2023-07-13T06:42:38;6.80;;;2.47;;
16975;SDS011;8604;48.148;-1.786;2023-07-13T06:49:00;8.37;;;2.90;;
16975;SDS011;8604;48.148;-1.786;2023-07-13T06:51:29;8.60;;;2.73;;
16975;SDS011;8604;48.148;-1.786;2023-07-13T06:53:57;7.13;;;2.50;;
16975;SDS011;8604;48.148;-1.786;2023-07-13T06:56:26;8.50;;;3.00;;
16975;SDS011;8604;48.148;-1.786;2023-07-13T06:58:54;7.67;;;2.70;;
16975;SDS011;8604;48.148;-1.786;2023-07-13T07:01:24;7.50;;;2.57;;
16975;SDS011;8604;48.148;-1.786;2023-07-13T07:03:53;8.47;;;2.63;;
16975;SDS011;8604;48.148;-1.786;2023-07-13T07:06:22;8.13;;;3.00;;
16975;SDS011;8604;48.148;-1.786;2023-07-13T07:08:51;7.73;;;2.80;;
16975;SDS011;8604;48.148;-1.786;2023-07-13T07:11:21;10.07;;;2.90;;
16975;SDS011;8604;48.148;-1.786;2023-07-13T07:13:52;7.50;;;2.63;;
16975;SDS011;8604;48.148;-1.786;2023-07-13T07:16:21;8.83;;;2.90;;
16975;SDS011;8604;48.148;-1.786;2023-07-13T07:18:53;25.83;;;6.30;;
16975;SDS011;8604;48.148;-1.786;2023-07-13T07:21:21;12.20;;;3.20;;
16975;SDS011;8604;48.148;-1.786;2023-07-13T07:23:51;10.33;;;2.80;;
16975;SDS011;8604;48.148;-1.786;2023-07-13T07:26:20;6.90;;;2.47;;
16975;SDS011;8604;48.148;-1.786;2023-07-13T07:28:53;8.40;;;2.37;;
16975;SDS011;8604;48.148;-1.786;2023-07-13T07:31:42;10.13;;;2.80;;
16975;SDS011;8604;48.148;-1.786;2023-07-13T07:34:15;7.40;;;2.50;;
16975;SDS011;8604;48.148;-1.786;2023-07-13T07:36:43;9.47;;;2.70;;
16975;SDS011;8604;48.148;-1.786;2023-07-13T07:39:15;6.77;;;2.73;;
16975;SDS011;8604;48.148;-1.786;2023-07-13T07:41:43;8.33;;;2.87;;
16975;SDS011;8604;48.148;-1.786;2023-07-13T07:44:22;7.47;;;2.33;;
16975;SDS011;8604;48.148;-1.786;2023-07-13T07:46:52;6.60;;;2.57;;
16975;SDS011;8604;48.148;-1.786;2023-07-13T07:49:22;7.97;;;2.53;;
16975;SDS011;8604;48.148;-1.786;2023-07-13T07:51:51;8.77;;;2.63;;
16975;SDS011;8604;48.148;-1.786;2023-07-13T07:54:20;9.43;;;2.60;;
16975;SDS011;8604;48.148;-1.786;2023-07-13T07:57:08;7.90;;;2.67;;
16975;SDS011;8604;48.148;-1.786;2023-07-13T07:59:40;6.37;;;2.30;;
16975;SDS011;8604;48.148;-1.786;2023-07-13T08:02:11;6.03;;;2.20;;
16975;SDS011;8604;48.148;-1.786;2023-07-13T08:05:01;7.00;;;2.40;;
16975;SDS011;8604;48.148;-1.786;2023-07-13T08:07:33;8.03;;;2.50;;
16975;SDS011;8604;48.148;-1.786;2023-07-13T08:10:02;6.67;;;2.10;;
16975;SDS011;8604;48.148;-1.786;2023-07-13T08:12:33;8.20;;;2.20;;
16975;SDS011;8604;48.148;-1.786;2023-07-13T08:15:05;7.03;;;2.10;;
16975;SDS011;8604;48.148;-1.786;2023-07-13T08:17:36;6.13;;;2.33;;
16975;SDS011;8604;48.148;-1.786;2023-07-13T08:20:07;7.57;;;2.43;;
16975;SDS011;8604;48.148;-1.786;2023-07-13T08:22:37;7.07;;;2.33;;
16975;SDS011;8604;48.148;-1.786;2023-07-13T08:25:06;6.07;;;2.20;;
16975;SDS011;8604;48.148;-1.786;2023-07-13T08:27:35;5.43;;;2.07;;
16975;SDS011;8604;48.148;-1.786;2023-07-13T08:30:04;5.07;;;2.20;;
16975;SDS011;8604;48.148;-1.786;2023-07-13T08:32:35;5.50;;;2.23;;
16975;SDS011;8604;48.148;-1.786;2023-07-13T08:35:05;6.00;;;2.00;;
16975;SDS011;8604;48.148;-1.786;2023-07-13T08:37:36;6.40;;;2.27;;
16975;SDS011;8604;48.148;-1.786;2023-07-13T08:40:05;6.47;;;2.20;;
16975;SDS011;8604;48.148;-1.786;2023-07-13T08:42:37;6.68;;;2.30;;
16975;SDS011;8604;48.148;-1.786;2023-07-13T08:45:13;4.68;;;2.20;;
16975;SDS011;8604;48.148;-1.786;2023-07-13T08:47:48;6.07;;;2.17;;
16975;SDS011;8604;48.148;-1.786;2023-07-13T08:50:25;5.05;;;2.00;;
16975;SDS011;8604;48.148;-1.786;2023-07-13T08:52:58;5.25;;;2.30;;
16975;SDS011;8604;48.148;-1.786;2023-07-13T08:55:30;5.63;;;2.83;;
16975;SDS011;8604;48.148;-1.786;2023-07-13T08:58:05;4.50;;;1.92;;
16975;SDS011;8604;48.148;-1.786;2023-07-13T09:00:42;6.03;;;1.88;;
16975;SDS011;8604;48.148;-1.786;2023-07-13T09:03:18;4.03;;;1.90;;
16975;SDS011;8604;48.148;-1.786;2023-07-13T09:05:52;5.20;;;1.75;;
16975;SDS011;8604;48.148;-1.786;2023-07-13T09:11:26;4.10;;;1.98;;
16975;SDS011;8604;48.148;-1.786;2023-07-13T09:14:06;5.82;;;2.17;;
16975;SDS011;8604;48.148;-1.786;2023-07-13T09:16:54;5.38;;;2.20;;
16975;SDS011;8604;48.148;-1.786;2023-07-13T09:19:24;3.30;;;1.85;;
16975;SDS011;8604;48.148;-1.786;2023-07-13T09:21:58;5.78;;;1.85;;
16975;SDS011;8604;48.148;-1.786;2023-07-13T09:24:34;4.25;;;2.00;;
16975;SDS011;8604;48.148;-1.786;2023-07-13T09:27:09;3.95;;;1.80;;
16975;SDS011;8604;48.148;-1.786;2023-07-13T09:29:46;4.72;;;2.10;;
16975;SDS011;8604;48.148;-1.786;2023-07-13T09:32:18;4.82;;;2.15;;
16975;SDS011;8604;48.148;-1.786;2023-07-13T09:34:51;4.68;;;2.10;;
16975;SDS011;8604;48.148;-1.786;2023-07-13T09:37:23;3.50;;;1.80;;
16975;SDS011;8604;48.148;-1.786;2023-07-13T09:39:56;4.82;;;1.67;;
16975;SDS011;8604;48.148;-1.786;2023-07-13T09:42:27;3.85;;;1.90;;
16975;SDS011;8604;48.148;-1.786;2023-07-13T09:44:56;2.72;;;1.52;;
16975;SDS011;8604;48.148;-1.786;2023-07-13T09:47:27;4.45;;;2.08;;
16975;SDS011;8604;48.148;-1.786;2023-07-13T09:49:58;3.90;;;1.90;;
16975;SDS011;8604;48.148;-1.786;2023-07-13T09:52:40;4.22;;;1.80;;
16975;SDS011;8604;48.148;-1.786;2023-07-13T09:55:23;4.78;;;1.83;;
16975;SDS011;8604;48.148;-1.786;2023-07-13T09:57:53;3.72;;;1.92;;
16975;SDS011;8604;48.148;-1.786;2023-07-13T10:00:22;3.80;;;1.55;;
16975;SDS011;8604;48.148;-1.786;2023-07-13T10:02:59;3.20;;;1.50;;
16975;SDS011;8604;48.148;-1.786;2023-07-13T10:05:37;4.10;;;1.85;;
16975;SDS011;8604;48.148;-1.786;2023-07-13T10:08:16;4.45;;;1.77;;
16975;SDS011;8604;48.148;-1.786;2023-07-13T10:10:46;4.00;;;1.95;;
16975;SDS011;8604;48.148;-1.786;2023-07-13T10:13:32;5.78;;;2.10;;
16975;SDS011;8604;48.148;-1.786;2023-07-13T10:16:04;4.43;;;2.10;;
16975;SDS011;8604;48.148;-1.786;2023-07-13T10:18:37;3.70;;;1.95;;
16975;SDS011;8604;48.148;-1.786;2023-07-13T10:21:11;3.00;;;1.60;;
16975;SDS011;8604;48.148;-1.786;2023-07-13T10:23:55;4.90;;;2.10;;
16975;SDS011;8604;48.148;-1.786;2023-07-13T10:26:26;4.72;;;1.80;;
16975;SDS011;8604;48.148;-1.786;2023-07-13T10:29:02;4.57;;;1.80;;
16975;SDS011;8604;48.148;-1.786;2023-07-13T10:31:34;2.42;;;1.60;;
16975;SDS011;8604;48.148;-1.786;2023-07-13T10:34:08;4.60;;;1.80;;
16975;SDS011;8604;48.148;-1.786;2023-07-13T10:36:39;3.58;;;1.80;;
16975;SDS011;8604;48.148;-1.786;2023-07-13T10:39:15;3.35;;;1.60;;
16975;SDS011;8604;48.148;-1.786;2023-07-13T10:41:47;4.53;;;2.00;;
16975;SDS011;8604;48.148;-1.786;2023-07-13T10:44:20;4.38;;;1.75;;
16975;SDS011;8604;48.148;-1.786;2023-07-13T10:46:57;4.97;;;1.98;;
16975;SDS011;8604;48.148;-1.786;2023-07-13T10:49:29;2.20;;;1.50;;
16975;SDS011;8604;48.148;-1.786;2023-07-13T10:51:59;3.28;;;1.70;;
16975;SDS011;8604;48.148;-1.786;2023-07-13T10:54:30;5.10;;;1.85;;
16975;SDS011;8604;48.148;-1.786;2023-07-13T10:57:16;3.72;;;1.80;;
16975;SDS011;8604;48.148;-1.786;2023-07-13T10:59:48;4.53;;;1.88;;
16975;SDS011;8604;48.148;-1.786;2023-07-13T11:02:39;4.13;;;1.88;;
16975;SDS011;8604;48.148;-1.786;2023-07-13T11:05:13;4.25;;;2.00;;
16975;SDS011;8604;48.148;-1.786;2023-07-13T11:07:55;2.88;;;1.80;;
16975;SDS011;8604;48.148;-1.786;2023-07-13T11:10:49;4.47;;;2.08;;
16975;SDS011;8604;48.148;-1.786;2023-07-13T11:13:39;3.53;;;1.60;;
16975;SDS011;8604;48.148;-1.786;2023-07-13T11:16:35;4.32;;;2.00;;
16975;SDS011;8604;48.148;-1.786;2023-07-13T11:22:15;3.15;;;1.85;;
16975;SDS011;8604;48.148;-1.786;2023-07-13T11:24:50;5.45;;;2.00;;
16975;SDS011;8604;48.148;-1.786;2023-07-13T11:27:39;3.78;;;1.85;;
16975;SDS011;8604;48.148;-1.786;2023-07-13T11:30:23;2.75;;;1.70;;
16975;SDS011;8604;48.148;-1.786;2023-07-13T11:33:03;4.60;;;2.08;;
16975;SDS011;8604;48.148;-1.786;2023-07-13T11:35:41;3.92;;;1.73;;
16975;SDS011;8604;48.148;-1.786;2023-07-13T11:38:16;5.13;;;2.00;;
16975;SDS011;8604;48.148;-1.786;2023-07-13T11:40:47;5.28;;;2.00;;
16975;SDS011;8604;48.148;-1.786;2023-07-13T11:43:23;4.32;;;1.98;;
16975;SDS011;8604;48.148;-1.786;2023-07-13T11:45:52;4.25;;;1.77;;
16975;SDS011;8604;48.148;-1.786;2023-07-13T11:48:22;3.83;;;1.80;;
16975;SDS011;8604;48.148;-1.786;2023-07-13T11:50:54;3.50;;;1.70;;
16975;SDS011;8604;48.148;-1.786;2023-07-13T11:53:27;4.37;;;1.63;;
16975;SDS011;8604;48.148;-1.786;2023-07-13T11:55:57;5.93;;;1.80;;
16975;SDS011;8604;48.148;-1.786;2023-07-13T11:58:28;3.80;;;1.87;;
16975;SDS011;8604;48.148;-1.786;2023-07-13T12:00:58;4.00;;;1.63;;
16975;SDS011;8604;48.148;-1.786;2023-07-13T12:03:31;3.63;;;1.57;;
16975;SDS011;8604;48.148;-1.786;2023-07-13T12:06:03;4.67;;;1.90;;
16975;SDS011;8604;48.148;-1.786;2023-07-13T12:08:37;5.93;;;1.80;;
16975;SDS011;8604;48.148;-1.786;2023-07-13T12:11:11;5.25;;;2.03;;
16975;SDS011;8604;48.148;-1.786;2023-07-13T12:13:46;4.10;;;1.80;;
16975;SDS011;8604;48.148;-1.786;2023-07-13T12:16:17;5.73;;;2.00;;
16975;SDS011;8604;48.148;-1.786;2023-07-13T12:19:00;4.00;;;1.70;;
16975;SDS011;8604;48.148;-1.786;2023-07-13T12:21:31;5.03;;;2.27;;
16975;SDS011;8604;48.148;-1.786;2023-07-13T12:24:01;3.70;;;2.20;;
16975;SDS011;8604;48.148;-1.786;2023-07-13T12:26:32;3.53;;;1.80;;
16975;SDS011;8604;48.148;-1.786;2023-07-13T12:29:04;4.30;;;1.90;;
16975;SDS011;8604;48.148;-1.786;2023-07-13T12:31:34;4.10;;;1.93;;
16975;SDS011;8604;48.148;-1.786;2023-07-13T12:34:06;3.73;;;2.10;;
16975;SDS011;8604;48.148;-1.786;2023-07-13T12:36:38;4.27;;;1.73;;
16975;SDS011;8604;48.148;-1.786;2023-07-13T12:39:13;4.27;;;1.90;;
16975;SDS011;8604;48.148;-1.786;2023-07-13T12:41:43;3.87;;;1.90;;
16975;SDS011;8604;48.148;-1.786;2023-07-13T12:44:15;5.90;;;2.00;;
16975;SDS011;8604;48.148;-1.786;2023-07-13T12:46:55;4.93;;;2.03;;
16975;SDS011;8604;48.148;-1.786;2023-07-13T12:49:31;4.10;;;2.00;;
16975;SDS011;8604;48.148;-1.786;2023-07-13T12:52:03;6.10;;;2.13;;
16975;SDS011;8604;48.148;-1.786;2023-07-13T12:54:41;6.10;;;2.20;;
16975;SDS011;8604;48.148;-1.786;2023-07-13T12:57:21;5.23;;;2.20;;
16975;SDS011;8604;48.148;-1.786;2023-07-13T12:59:53;4.13;;;1.95;;
16975;SDS011;8604;48.148;-1.786;2023-07-13T13:02:27;5.65;;;2.35;;
16975;SDS011;8604;48.148;-1.786;2023-07-13T13:04:58;4.38;;;2.08;;
16975;SDS011;8604;48.148;-1.786;2023-07-13T13:07:27;6.20;;;2.27;;
16975;SDS011;8604;48.148;-1.786;2023-07-13T13:09:56;3.67;;;2.00;;
16975;SDS011;8604;48.148;-1.786;2023-07-13T13:12:25;4.35;;;2.30;;
16975;SDS011;8604;48.148;-1.786;2023-07-13T13:14:55;5.88;;;2.42;;
16975;SDS011;8604;48.148;-1.786;2023-07-13T13:17:24;3.45;;;2.05;;
16975;SDS011;8604;48.148;-1.786;2023-07-13T13:19:57;4.45;;;2.08;;
16975;SDS011;8604;48.148;-1.786;2023-07-13T13:22:26;4.07;;;2.03;;
16975;SDS011;8604;48.148;-1.786;2023-07-13T13:24:54;7.30;;;2.10;;
16975;SDS011;8604;48.148;-1.786;2023-07-13T13:27:23;5.75;;;2.10;;
16975;SDS011;8604;48.148;-1.786;2023-07-13T13:29:52;5.22;;;2.10;;
16975;SDS011;8604;48.148;-1.786;2023-07-13T13:32:22;4.50;;;2.10;;
16975;SDS011;8604;48.148;-1.786;2023-07-13T13:34:51;4.68;;;1.90;;
16975;SDS011;8604;48.148;-1.786;2023-07-13T13:37:21;4.30;;;2.30;;
16975;SDS011;8604;48.148;-1.786;2023-07-13T13:39:52;5.05;;;1.98;;
16975;SDS011;8604;48.148;-1.786;2023-07-13T13:42:34;6.40;;;2.42;;
16975;SDS011;8604;48.148;-1.786;2023-07-13T13:45:03;4.75;;;2.20;;
16975;SDS011;8604;48.148;-1.786;2023-07-13T13:47:34;5.00;;;2.20;;
16975;SDS011;8604;48.148;-1.786;2023-07-13T13:50:10;4.55;;;2.13;;
16975;SDS011;8604;48.148;-1.786;2023-07-13T13:52:42;4.90;;;2.15;;
16975;SDS011;8604;48.148;-1.786;2023-07-13T13:55:12;4.97;;;2.17;;
16975;SDS011;8604;48.148;-1.786;2023-07-13T13:57:41;5.60;;;2.10;;
16975;SDS011;8604;48.148;-1.786;2023-07-13T14:00:11;4.95;;;2.10;;
16975;SDS011;8604;48.148;-1.786;2023-07-13T14:02:44;4.82;;;2.13;;
16975;SDS011;8604;48.148;-1.786;2023-07-13T14:05:21;4.07;;;2.25;;
16975;SDS011;8604;48.148;-1.786;2023-07-13T14:07:52;4.38;;;2.03;;
16975;SDS011;8604;48.148;-1.786;2023-07-13T14:10:23;6.78;;;2.33;;
16975;SDS011;8604;48.148;-1.786;2023-07-13T14:12:52;4.25;;;1.98;;
16975;SDS011;8604;48.148;-1.786;2023-07-13T14:15:24;5.00;;;2.33;;
16975;SDS011;8604;48.148;-1.786;2023-07-13T14:17:59;4.77;;;2.20;;
16975;SDS011;8604;48.148;-1.786;2023-07-13T14:20:28;4.30;;;2.10;;
16975;SDS011;8604;48.148;-1.786;2023-07-13T14:22:56;5.10;;;2.30;;
16975;SDS011;8604;48.148;-1.786;2023-07-13T14:25:25;6.00;;;2.37;;
16975;SDS011;8604;48.148;-1.786;2023-07-13T14:27:57;4.30;;;2.00;;
16975;SDS011;8604;48.148;-1.786;2023-07-13T14:30:27;6.97;;;2.50;;
16975;SDS011;8604;48.148;-1.786;2023-07-13T14:32:56;6.10;;;2.20;;
16975;SDS011;8604;48.148;-1.786;2023-07-13T14:35:26;4.50;;;2.10;;
16975;SDS011;8604;48.148;-1.786;2023-07-13T14:37:54;5.77;;;2.30;;
16975;SDS011;8604;48.148;-1.786;2023-07-13T14:40:24;7.60;;;2.37;;
16975;SDS011;8604;48.148;-1.786;2023-07-13T14:42:57;3.88;;;2.10;;
16975;SDS011;8604;48.148;-1.786;2023-07-13T14:45:26;5.38;;;2.33;;
16975;SDS011;8604;48.148;-1.786;2023-07-13T14:47:56;5.90;;;2.30;;
16975;SDS011;8604;48.148;-1.786;2023-07-13T14:50:27;5.55;;;2.53;;
16975;SDS011;8604;48.148;-1.786;2023-07-13T14:52:58;5.18;;;2.03;;
16975;SDS011;8604;48.148;-1.786;2023-07-13T14:55:27;4.10;;;2.20;;
16975;SDS011;8604;48.148;-1.786;2023-07-13T14:57:56;5.13;;;2.10;;
16975;SDS011;8604;48.148;-1.786;2023-07-13T15:00:25;3.30;;;1.92;;
16975;SDS011;8604;48.148;-1.786;2023-07-13T15:02:55;3.92;;;2.20;;
16975;SDS011;8604;48.148;-1.786;2023-07-13T15:05:28;3.67;;;2.17;;
16975;SDS011;8604;48.148;-1.786;2023-07-13T15:07:59;4.63;;;2.40;;
16975;SDS011;8604;48.148;-1.786;2023-07-13T15:10:29;4.72;;;2.10;;
16975;SDS011;8604;48.148;-1.786;2023-07-13T15:13:00;5.72;;;2.20;;
16975;SDS011;8604;48.148;-1.786;2023-07-13T15:15:40;4.97;;;2.20;;
16975;SDS011;8604;48.148;-1.786;2023-07-13T15:18:11;4.38;;;2.08;;
16975;SDS011;8604;48.148;-1.786;2023-07-13T15:20:42;5.97;;;2.33;;
16975;SDS011;8604;48.148;-1.786;2023-07-13T15:23:13;5.22;;;2.33;;
16975;SDS011;8604;48.148;-1.786;2023-07-13T15:25:43;5.25;;;2.30;;
16975;SDS011;8604;48.148;-1.786;2023-07-13T15:28:12;3.45;;;1.85;;
16975;SDS011;8604;48.148;-1.786;2023-07-13T15:30:44;5.47;;;2.40;;
16975;SDS011;8604;48.148;-1.786;2023-07-13T15:33:18;5.68;;;2.20;;
16975;SDS011;8604;48.148;-1.786;2023-07-13T15:35:51;3.93;;;2.20;;
16975;SDS011;8604;48.148;-1.786;2023-07-13T15:38:22;6.65;;;2.13;;